sensor_id;sensor_type;location;lat;lon;timestamp;P1;durP1;ratioP1;P2;durP2;ratioP2
81160;SDS011;70637;48.514;14.500;2024-03-17T00:00:19;4.55;;;1.10;;
81160;SDS011;70637;48.514;14.500;2024-03-17T00:02:45;5.57;;;1.65;;
81160;SDS011;70637;48.514;14.500;2024-03-17T00:05:11;3.95;;;1.20;;
81160;SDS011;70637;48.514;14.500;2024-03-17T00:07:38;3.08;;;1.08;;
81160;SDS011;70637;48.514;14.500;2024-03-17T00:10:04;4.93;;;1.25;;
81160;SDS011;70637;48.514;14.500;2024-03-17T00:12:32;5.88;;;1.45;;
81160;SDS011;70637;48.514;14.500;2024-03-17T00:15:01;6.07;;;1.92;;
81160;SDS011;70637;48.514;14.500;2024-03-17T00:17:27;3.55;;;1.10;;
81160;SDS011;70637;48.514;14.500;2024-03-17T00:19:52;5.45;;;1.20;;
81160;SDS011;70637;48.514;14.500;2024-03-17T00:22:18;3.75;;;1.10;;
81160;SDS011;70637;48.514;14.500;2024-03-17T00:24:45;4.43;;;1.30;;
81160;SDS011;70637;48.514;14.500;2024-03-17T00:27:11;3.65;;;1.20;;
81160;SDS011;70637;48.514;14.500;2024-03-17T00:29:37;4.57;;;1.20;;
81160;SDS011;70637;48.514;14.500;2024-03-17T00:32:03;3.45;;;1.20;;
81160;SDS011;70637;48.514;14.500;2024-03-17T00:34:29;2.83;;;1.15;;
81160;SDS011;70637;48.514;14.500;2024-03-17T00:36:55;5.68;;;1.70;;
81160;SDS011;70637;48.514;14.500;2024-03-17T00:39:21;3.22;;;1.55;;
81160;SDS011;70637;48.514;14.500;2024-03-17T00:41:47;3.33;;;1.20;;
81160;SDS011;70637;48.514;14.500;2024-03-17T00:44:14;3.75;;;1.20;;
81160;SDS011;70637;48.514;14.500;2024-03-17T00:46:40;4.25;;;1.10;;
81160;SDS011;70637;48.514;14.500;2024-03-17T00:49:07;3.30;;;1.00;;
81160;SDS011;70637;48.514;14.500;2024-03-17T00:51:34;3.90;;;1.50;;
81160;SDS011;70637;48.514;14.500;2024-03-17T00:53:59;5.22;;;1.40;;
81160;SDS011;70637;48.514;14.500;2024-03-17T00:56:25;2.97;;;1.10;;
81160;SDS011;70637;48.514;14.500;2024-03-17T00:58:51;4.95;;;1.42;;
81160;SDS011;70637;48.514;14.500;2024-03-17T01:01:17;3.83;;;1.20;;
81160;SDS011;70637;48.514;14.500;2024-03-17T01:03:44;2.85;;;1.10;;
81160;SDS011;70637;48.514;14.500;2024-03-17T01:06:13;4.53;;;1.30;;
81160;SDS011;70637;48.514;14.500;2024-03-17T01:08:39;4.55;;;1.20;;
81160;SDS011;70637;48.514;14.500;2024-03-17T01:11:04;4.07;;;1.00;;
81160;SDS011;70637;48.514;14.500;2024-03-17T01:13:33;3.83;;;0.98;;
81160;SDS011;70637;48.514;14.500;2024-03-17T01:16:00;3.38;;;1.15;;
81160;SDS011;70637;48.514;14.500;2024-03-17T01:18:26;4.63;;;1.27;;
81160;SDS011;70637;48.514;14.500;2024-03-17T01:20:51;3.30;;;1.40;;
81160;SDS011;70637;48.514;14.500;2024-03-17T01:23:17;4.25;;;1.13;;
81160;SDS011;70637;48.514;14.500;2024-03-17T01:25:43;5.07;;;1.30;;
81160;SDS011;70637;48.514;14.500;2024-03-17T01:28:08;2.42;;;0.93;;
81160;SDS011;70637;48.514;14.500;2024-03-17T01:30:34;4.65;;;1.30;;
81160;SDS011;70637;48.514;14.500;2024-03-17T01:33:00;4.15;;;1.38;;
81160;SDS011;70637;48.514;14.500;2024-03-17T01:35:26;4.40;;;1.50;;
81160;SDS011;70637;48.514;14.500;2024-03-17T01:37:52;5.15;;;1.15;;
81160;SDS011;70637;48.514;14.500;2024-03-17T01:40:18;3.47;;;1.00;;
81160;SDS011;70637;48.514;14.500;2024-03-17T01:42:43;4.03;;;1.00;;
81160;SDS011;70637;48.514;14.500;2024-03-17T01:47:57;3.25;;;1.13;;
81160;SDS011;70637;48.514;14.500;2024-03-17T01:50:30;1.95;;;0.95;;
81160;SDS011;70637;48.514;14.500;2024-03-17T01:52:59;2.42;;;1.00;;
81160;SDS011;70637;48.514;14.500;2024-03-17T01:55:29;3.13;;;1.02;;
81160;SDS011;70637;48.514;14.500;2024-03-17T01:57:55;2.92;;;1.20;;
81160;SDS011;70637;48.514;14.500;2024-03-17T02:00:21;3.65;;;1.10;;
81160;SDS011;70637;48.514;14.500;2024-03-17T02:02:48;3.88;;;1.00;;
81160;SDS011;70637;48.514;14.500;2024-03-17T02:05:13;3.65;;;1.25;;
81160;SDS011;70637;48.514;14.500;2024-03-17T02:07:39;1.58;;;0.98;;
81160;SDS011;70637;48.514;14.500;2024-03-17T02:10:05;2.80;;;1.10;;
81160;SDS011;70637;48.514;14.500;2024-03-17T02:12:33;4.10;;;1.08;;
81160;SDS011;70637;48.514;14.500;2024-03-17T02:14:59;3.97;;;1.10;;
81160;SDS011;70637;48.514;14.500;2024-03-17T02:17:25;5.05;;;1.27;;
81160;SDS011;70637;48.514;14.500;2024-03-17T02:19:53;3.53;;;1.50;;
81160;SDS011;70637;48.514;14.500;2024-03-17T02:22:19;2.50;;;0.90;;
81160;SDS011;70637;48.514;14.500;2024-03-17T02:24:45;3.08;;;1.00;;
81160;SDS011;70637;48.514;14.500;2024-03-17T02:27:11;2.70;;;1.08;;
81160;SDS011;70637;48.514;14.500;2024-03-17T02:29:37;1.95;;;0.85;;
81160;SDS011;70637;48.514;14.500;2024-03-17T02:32:03;1.88;;;0.90;;
81160;SDS011;70637;48.514;14.500;2024-03-17T02:34:32;2.92;;;0.90;;
81160;SDS011;70637;48.514;14.500;2024-03-17T02:37:01;2.20;;;0.90;;
81160;SDS011;70637;48.514;14.500;2024-03-17T02:39:29;2.53;;;1.00;;
81160;SDS011;70637;48.514;14.500;2024-03-17T02:42:01;3.15;;;1.05;;
81160;SDS011;70637;48.514;14.500;2024-03-17T02:44:31;4.80;;;1.25;;
81160;SDS011;70637;48.514;14.500;2024-03-17T02:47:00;2.85;;;0.80;;
81160;SDS011;70637;48.514;14.500;2024-03-17T02:49:33;2.38;;;0.80;;
81160;SDS011;70637;48.514;14.500;2024-03-17T02:52:04;3.87;;;1.00;;
81160;SDS011;70637;48.514;14.500;2024-03-17T02:54:34;3.50;;;0.80;;
81160;SDS011;70637;48.514;14.500;2024-03-17T02:57:00;1.50;;;0.80;;
81160;SDS011;70637;48.514;14.500;2024-03-17T02:59:29;2.00;;;0.80;;
81160;SDS011;70637;48.514;14.500;2024-03-17T03:01:56;1.73;;;1.00;;
81160;SDS011;70637;48.514;14.500;2024-03-17T03:04:21;2.50;;;1.02;;
81160;SDS011;70637;48.514;14.500;2024-03-17T03:06:47;3.20;;;0.90;;
81160;SDS011;70637;48.514;14.500;2024-03-17T03:09:13;2.03;;;0.93;;
81160;SDS011;70637;48.514;14.500;2024-03-17T03:11:44;3.58;;;0.82;;
81160;SDS011;70637;48.514;14.500;2024-03-17T03:14:09;1.70;;;0.80;;
81160;SDS011;70637;48.514;14.500;2024-03-17T03:16:35;2.72;;;1.10;;
81160;SDS011;70637;48.514;14.500;2024-03-17T03:19:00;2.25;;;1.02;;
81160;SDS011;70637;48.514;14.500;2024-03-17T03:21:26;2.97;;;1.10;;
81160;SDS011;70637;48.514;14.500;2024-03-17T03:23:52;3.17;;;1.05;;
81160;SDS011;70637;48.514;14.500;2024-03-17T03:26:18;1.95;;;0.90;;
81160;SDS011;70637;48.514;14.500;2024-03-17T03:28:43;4.68;;;1.25;;
81160;SDS011;70637;48.514;14.500;2024-03-17T03:31:12;4.47;;;0.98;;
81160;SDS011;70637;48.514;14.500;2024-03-17T03:33:39;2.47;;;0.90;;
81160;SDS011;70637;48.514;14.500;2024-03-17T03:36:09;2.10;;;0.85;;
81160;SDS011;70637;48.514;14.500;2024-03-17T03:38:36;2.65;;;0.70;;
81160;SDS011;70637;48.514;14.500;2024-03-17T03:41:05;3.20;;;1.05;;
81160;SDS011;70637;48.514;14.500;2024-03-17T05:17:16;1.52;;;0.80;;
81160;SDS011;70637;48.514;14.500;2024-03-17T05:19:42;2.33;;;0.95;;
81160;SDS011;70637;48.514;14.500;2024-03-17T05:22:07;2.13;;;0.80;;
81160;SDS011;70637;48.514;14.500;2024-03-17T05:24:33;2.22;;;0.80;;
81160;SDS011;70637;48.514;14.500;2024-03-17T05:26:59;1.90;;;0.90;;
81160;SDS011;70637;48.514;14.500;2024-03-17T05:29:24;2.15;;;0.98;;
81160;SDS011;70637;48.514;14.500;2024-03-17T05:31:50;1.92;;;0.80;;
81160;SDS011;70637;48.514;14.500;2024-03-17T05:34:16;2.22;;;0.73;;
81160;SDS011;70637;48.514;14.500;2024-03-17T05:36:41;4.25;;;1.10;;
81160;SDS011;70637;48.514;14.500;2024-03-17T05:39:07;2.80;;;0.68;;
81160;SDS011;70637;48.514;14.500;2024-03-17T05:41:32;1.73;;;0.70;;
81160;SDS011;70637;48.514;14.500;2024-03-17T05:43:58;1.02;;;0.70;;
81160;SDS011;70637;48.514;14.500;2024-03-17T05:46:28;1.50;;;0.73;;
81160;SDS011;70637;48.514;14.500;2024-03-17T05:48:54;2.38;;;1.17;;
81160;SDS011;70637;48.514;14.500;2024-03-17T05:51:20;3.33;;;0.98;;
81160;SDS011;70637;48.514;14.500;2024-03-17T05:53:46;3.50;;;0.80;;
81160;SDS011;70637;48.514;14.500;2024-03-17T05:56:12;2.03;;;0.70;;
81160;SDS011;70637;48.514;14.500;2024-03-17T05:58:38;2.58;;;0.90;;
81160;SDS011;70637;48.514;14.500;2024-03-17T06:01:04;2.20;;;0.80;;
81160;SDS011;70637;48.514;14.500;2024-03-17T06:03:37;4.20;;;0.63;;
81160;SDS011;70637;48.514;14.500;2024-03-17T06:06:03;2.20;;;0.85;;
81160;SDS011;70637;48.514;14.500;2024-03-17T06:08:29;2.47;;;0.68;;
81160;SDS011;70637;48.514;14.500;2024-03-17T06:10:55;2.88;;;0.68;;
81160;SDS011;70637;48.514;14.500;2024-03-17T06:13:25;1.58;;;0.70;;
81160;SDS011;70637;48.514;14.500;2024-03-17T06:15:54;2.30;;;0.90;;
81160;SDS011;70637;48.514;14.500;2024-03-17T06:18:25;1.92;;;0.80;;
81160;SDS011;70637;48.514;14.500;2024-03-17T06:20:51;2.95;;;0.70;;
81160;SDS011;70637;48.514;14.500;2024-03-17T06:23:17;2.90;;;0.75;;
81160;SDS011;70637;48.514;14.500;2024-03-17T06:25:43;3.80;;;0.70;;
81160;SDS011;70637;48.514;14.500;2024-03-17T06:28:10;1.25;;;0.52;;
81160;SDS011;70637;48.514;14.500;2024-03-17T06:30:43;2.08;;;0.80;;
81160;SDS011;70637;48.514;14.500;2024-03-17T06:33:12;2.47;;;0.73;;
81160;SDS011;70637;48.514;14.500;2024-03-17T06:35:39;2.20;;;0.70;;
81160;SDS011;70637;48.514;14.500;2024-03-17T06:38:05;2.45;;;0.63;;
81160;SDS011;70637;48.514;14.500;2024-03-17T06:40:35;3.97;;;0.80;;
81160;SDS011;70637;48.514;14.500;2024-03-17T06:43:01;5.47;;;0.98;;
81160;SDS011;70637;48.514;14.500;2024-03-17T06:45:26;5.63;;;1.00;;
81160;SDS011;70637;48.514;14.500;2024-03-17T06:47:52;2.92;;;0.93;;
81160;SDS011;70637;48.514;14.500;2024-03-17T06:50:18;3.72;;;1.00;;
81160;SDS011;70637;48.514;14.500;2024-03-17T06:52:43;3.63;;;0.80;;
81160;SDS011;70637;48.514;14.500;2024-03-17T06:55:09;2.92;;;0.93;;
81160;SDS011;70637;48.514;14.500;2024-03-17T06:57:35;2.38;;;1.02;;
81160;SDS011;70637;48.514;14.500;2024-03-17T07:00:02;3.60;;;1.13;;
81160;SDS011;70637;48.514;14.500;2024-03-17T07:02:38;4.78;;;1.27;;
81160;SDS011;70637;48.514;14.500;2024-03-17T07:05:04;3.97;;;1.30;;
81160;SDS011;70637;48.514;14.500;2024-03-17T07:07:30;4.50;;;1.60;;
81160;SDS011;70637;48.514;14.500;2024-03-17T07:09:55;4.45;;;1.52;;
81160;SDS011;70637;48.514;14.500;2024-03-17T07:12:21;7.18;;;1.98;;
81160;SDS011;70637;48.514;14.500;2024-03-17T07:14:49;5.00;;;2.00;;
81160;SDS011;70637;48.514;14.500;2024-03-17T07:17:15;5.93;;;2.20;;
81160;SDS011;70637;48.514;14.500;2024-03-17T07:19:41;8.30;;;2.17;;
81160;SDS011;70637;48.514;14.500;2024-03-17T07:22:07;6.55;;;2.17;;
81160;SDS011;70637;48.514;14.500;2024-03-17T07:24:32;6.47;;;2.20;;
81160;SDS011;70637;48.514;14.500;2024-03-17T07:26:58;6.68;;;2.60;;
81160;SDS011;70637;48.514;14.500;2024-03-17T07:29:24;6.63;;;2.30;;
81160;SDS011;70637;48.514;14.500;2024-03-17T07:31:49;8.95;;;2.75;;
81160;SDS011;70637;48.514;14.500;2024-03-17T07:34:15;7.82;;;2.80;;
81160;SDS011;70637;48.514;14.500;2024-03-17T07:36:41;9.23;;;2.72;;
81160;SDS011;70637;48.514;14.500;2024-03-17T07:39:06;8.05;;;2.45;;
81160;SDS011;70637;48.514;14.500;2024-03-17T07:41:32;9.82;;;3.05;;
81160;SDS011;70637;48.514;14.500;2024-03-17T07:43:58;7.38;;;2.53;;
81160;SDS011;70637;48.514;14.500;2024-03-17T07:46:24;8.38;;;2.78;;
81160;SDS011;70637;48.514;14.500;2024-03-17T07:48:49;9.80;;;2.90;;
81160;SDS011;70637;48.514;14.500;2024-03-17T07:51:16;6.93;;;2.72;;
81160;SDS011;70637;48.514;14.500;2024-03-17T07:53:42;7.15;;;2.50;;
81160;SDS011;70637;48.514;14.500;2024-03-17T07:56:17;10.48;;;2.92;;
81160;SDS011;70637;48.514;14.500;2024-03-17T07:58:44;9.63;;;3.05;;
81160;SDS011;70637;48.514;14.500;2024-03-17T08:01:11;7.95;;;2.72;;
81160;SDS011;70637;48.514;14.500;2024-03-17T08:03:38;7.75;;;3.00;;
81160;SDS011;70637;48.514;14.500;2024-03-17T08:06:06;8.73;;;3.00;;
81160;SDS011;70637;48.514;14.500;2024-03-17T08:08:33;9.27;;;2.75;;
81160;SDS011;70637;48.514;14.500;2024-03-17T08:10:59;7.10;;;2.63;;
81160;SDS011;70637;48.514;14.500;2024-03-17T08:13:29;7.10;;;2.50;;
81160;SDS011;70637;48.514;14.500;2024-03-17T08:16:01;6.93;;;2.40;;
81160;SDS011;70637;48.514;14.500;2024-03-17T08:18:28;8.02;;;3.20;;
81160;SDS011;70637;48.514;14.500;2024-03-17T08:20:54;10.80;;;2.83;;
81160;SDS011;70637;48.514;14.500;2024-03-17T08:23:20;9.48;;;3.00;;
81160;SDS011;70637;48.514;14.500;2024-03-17T08:25:53;8.52;;;2.88;;
81160;SDS011;70637;48.514;14.500;2024-03-17T08:28:20;5.55;;;2.25;;
81160;SDS011;70637;48.514;14.500;2024-03-17T08:30:53;7.95;;;2.70;;
81160;SDS011;70637;48.514;14.500;2024-03-17T08:33:28;7.50;;;2.58;;
81160;SDS011;70637;48.514;14.500;2024-03-17T08:35:56;8.05;;;2.40;;
81160;SDS011;70637;48.514;14.500;2024-03-17T08:38:23;6.03;;;2.55;;
81160;SDS011;70637;48.514;14.500;2024-03-17T08:40:50;6.00;;;2.30;;
81160;SDS011;70637;48.514;14.500;2024-03-17T08:43:16;7.70;;;2.47;;
81160;SDS011;70637;48.514;14.500;2024-03-17T08:45:42;6.68;;;2.33;;
81160;SDS011;70637;48.514;14.500;2024-03-17T08:48:08;5.55;;;2.50;;
81160;SDS011;70637;48.514;14.500;2024-03-17T08:50:35;6.05;;;2.78;;
81160;SDS011;70637;48.514;14.500;2024-03-17T08:53:01;6.65;;;2.75;;
81160;SDS011;70637;48.514;14.500;2024-03-17T08:55:27;8.40;;;2.78;;
81160;SDS011;70637;48.514;14.500;2024-03-17T08:57:53;7.70;;;2.95;;
81160;SDS011;70637;48.514;14.500;2024-03-17T09:00:18;7.50;;;2.45;;
81160;SDS011;70637;48.514;14.500;2024-03-17T09:02:44;7.93;;;2.40;;
81160;SDS011;70637;48.514;14.500;2024-03-17T09:05:10;8.13;;;2.80;;
81160;SDS011;70637;48.514;14.500;2024-03-17T09:07:37;7.28;;;2.50;;
81160;SDS011;70637;48.514;14.500;2024-03-17T09:10:03;6.65;;;2.50;;
81160;SDS011;70637;48.514;14.500;2024-03-17T09:12:30;8.18;;;2.85;;
81160;SDS011;70637;48.514;14.500;2024-03-17T09:14:55;7.18;;;2.90;;
81160;SDS011;70637;48.514;14.500;2024-03-17T09:17:21;8.48;;;2.70;;
81160;SDS011;70637;48.514;14.500;2024-03-17T09:19:47;7.80;;;2.90;;
81160;SDS011;70637;48.514;14.500;2024-03-17T09:22:13;9.32;;;2.63;;
81160;SDS011;70637;48.514;14.500;2024-03-17T09:24:38;7.35;;;3.00;;
81160;SDS011;70637;48.514;14.500;2024-03-17T09:27:05;6.50;;;2.85;;
81160;SDS011;70637;48.514;14.500;2024-03-17T09:29:31;6.78;;;3.13;;
81160;SDS011;70637;48.514;14.500;2024-03-17T09:31:58;7.75;;;2.83;;
81160;SDS011;70637;48.514;14.500;2024-03-17T09:34:23;6.88;;;2.88;;
81160;SDS011;70637;48.514;14.500;2024-03-17T09:36:49;7.68;;;3.60;;
81160;SDS011;70637;48.514;14.500;2024-03-17T09:39:15;6.85;;;3.38;;
81160;SDS011;70637;48.514;14.500;2024-03-17T09:41:41;7.70;;;3.53;;
81160;SDS011;70637;48.514;14.500;2024-03-17T09:44:09;8.55;;;3.90;;
81160;SDS011;70637;48.514;14.500;2024-03-17T09:46:38;7.70;;;4.00;;
81160;SDS011;70637;48.514;14.500;2024-03-17T09:49:04;8.65;;;3.80;;
81160;SDS011;70637;48.514;14.500;2024-03-17T09:51:34;8.18;;;4.30;;
81160;SDS011;70637;48.514;14.500;2024-03-17T09:54:05;8.63;;;4.45;;
81160;SDS011;70637;48.514;14.500;2024-03-17T09:56:43;8.60;;;5.07;;
81160;SDS011;70637;48.514;14.500;2024-03-17T09:59:08;8.02;;;4.20;;
81160;SDS011;70637;48.514;14.500;2024-03-17T10:01:34;6.43;;;4.18;;
81160;SDS011;70637;48.514;14.500;2024-03-17T10:04:00;8.05;;;4.20;;
81160;SDS011;70637;48.514;14.500;2024-03-17T10:06:35;7.57;;;4.15;;
81160;SDS011;70637;48.514;14.500;2024-03-17T10:09:13;8.27;;;4.47;;
81160;SDS011;70637;48.514;14.500;2024-03-17T10:11:46;6.57;;;4.32;;
81160;SDS011;70637;48.514;14.500;2024-03-17T10:14:12;6.07;;;3.80;;
81160;SDS011;70637;48.514;14.500;2024-03-17T10:16:42;7.55;;;4.18;;
81160;SDS011;70637;48.514;14.500;2024-03-17T10:21:45;8.25;;;5.10;;
81160;SDS011;70637;48.514;14.500;2024-03-17T10:24:20;7.43;;;5.15;;
81160;SDS011;70637;48.514;14.500;2024-03-17T10:26:51;7.20;;;5.45;;
81160;SDS011;70637;48.514;14.500;2024-03-17T10:31:57;7.32;;;5.95;;
81160;SDS011;70637;48.514;14.500;2024-03-17T10:34:39;8.98;;;6.72;;
81160;SDS011;70637;48.514;14.500;2024-03-17T10:37:08;8.20;;;6.53;;
81160;SDS011;70637;48.514;14.500;2024-03-17T10:39:52;9.20;;;6.72;;
81160;SDS011;70637;48.514;14.500;2024-03-17T10:42:24;8.57;;;7.05;;
81160;SDS011;70637;48.514;14.500;2024-03-17T10:44:53;9.88;;;7.40;;
81160;SDS011;70637;48.514;14.500;2024-03-17T10:47:21;10.02;;;7.70;;
81160;SDS011;70637;48.514;14.500;2024-03-17T10:49:52;9.15;;;8.00;;
81160;SDS011;70637;48.514;14.500;2024-03-17T10:52:19;11.05;;;8.60;;
81160;SDS011;70637;48.514;14.500;2024-03-17T10:54:50;11.55;;;9.50;;
81160;SDS011;70637;48.514;14.500;2024-03-17T11:00:02;13.13;;;10.63;;
81160;SDS011;70637;48.514;14.500;2024-03-17T11:02:30;12.95;;;10.07;;
81160;SDS011;70637;48.514;14.500;2024-03-17T11:05:17;13.93;;;11.35;;
81160;SDS011;70637;48.514;14.500;2024-03-17T11:07:48;13.63;;;10.75;;
81160;SDS011;70637;48.514;14.500;2024-03-17T11:10:19;13.10;;;10.68;;
81160;SDS011;70637;48.514;14.500;2024-03-17T11:12:55;13.88;;;11.00;;
81160;SDS011;70637;48.514;14.500;2024-03-17T11:17:53;14.65;;;12.20;;
81160;SDS011;70637;48.514;14.500;2024-03-17T11:20:25;13.93;;;11.30;;
81160;SDS011;70637;48.514;14.500;2024-03-17T11:22:54;14.80;;;12.68;;
81160;SDS011;70637;48.514;14.500;2024-03-17T11:27:58;15.85;;;13.02;;
81160;SDS011;70637;48.514;14.500;2024-03-17T11:38:58;18.08;;;15.15;;
81160;SDS011;70637;48.514;14.500;2024-03-17T11:41:45;19.63;;;16.52;;
81160;SDS011;70637;48.514;14.500;2024-03-17T11:44:33;18.92;;;16.40;;
81160;SDS011;70637;48.514;14.500;2024-03-17T11:47:02;20.73;;;17.42;;
81160;SDS011;70637;48.514;14.500;2024-03-17T11:52:00;21.30;;;17.60;;
81160;SDS011;70637;48.514;14.500;2024-03-17T11:54:31;21.93;;;18.03;;
81160;SDS011;70637;48.514;14.500;2024-03-17T11:59:27;22.85;;;19.10;;
81160;SDS011;70637;48.514;14.500;2024-03-17T12:01:53;22.58;;;18.83;;
81160;SDS011;70637;48.514;14.500;2024-03-17T12:04:19;24.70;;;19.85;;
81160;SDS011;70637;48.514;14.500;2024-03-17T12:06:46;24.25;;;20.17;;
81160;SDS011;70637;48.514;14.500;2024-03-17T12:09:18;24.70;;;20.58;;
81160;SDS011;70637;48.514;14.500;2024-03-17T12:11:50;24.35;;;21.02;;
81160;SDS011;70637;48.514;14.500;2024-03-17T12:14:36;24.83;;;20.67;;
81160;SDS011;70637;48.514;14.500;2024-03-17T12:17:07;23.55;;;21.02;;
81160;SDS011;70637;48.514;14.500;2024-03-17T12:19:34;28.67;;;23.38;;
81160;SDS011;70637;48.514;14.500;2024-03-17T12:22:00;25.95;;;22.10;;
81160;SDS011;70637;48.514;14.500;2024-03-17T12:24:28;28.77;;;23.10;;
81160;SDS011;70637;48.514;14.500;2024-03-17T12:26:55;28.48;;;23.33;;
81160;SDS011;70637;48.514;14.500;2024-03-17T12:31:55;32.05;;;23.98;;
81160;SDS011;70637;48.514;14.500;2024-03-17T12:34:22;27.23;;;23.58;;
81160;SDS011;70637;48.514;14.500;2024-03-17T12:36:49;28.23;;;25.00;;
81160;SDS011;70637;48.514;14.500;2024-03-17T12:42:00;32.45;;;26.20;;
81160;SDS011;70637;48.514;14.500;2024-03-17T12:44:30;29.27;;;25.13;;
81160;SDS011;70637;48.514;14.500;2024-03-17T12:46:58;32.65;;;26.95;;
81160;SDS011;70637;48.514;14.500;2024-03-17T12:49:30;32.50;;;27.52;;
81160;SDS011;70637;48.514;14.500;2024-03-17T12:51:57;30.42;;;26.58;;
81160;SDS011;70637;48.514;14.500;2024-03-17T12:54:24;32.72;;;26.42;;
81160;SDS011;70637;48.514;14.500;2024-03-17T12:56:51;34.33;;;26.60;;
81160;SDS011;70637;48.514;14.500;2024-03-17T12:59:47;33.28;;;27.58;;
81160;SDS011;70637;48.514;14.500;2024-03-17T13:02:31;31.00;;;27.38;;
81160;SDS011;70637;48.514;14.500;2024-03-17T13:05:07;33.30;;;27.40;;
81160;SDS011;70637;48.514;14.500;2024-03-17T13:07:39;33.50;;;28.15;;
81160;SDS011;70637;48.514;14.500;2024-03-17T13:10:06;33.03;;;27.52;;
81160;SDS011;70637;48.514;14.500;2024-03-17T13:12:33;34.88;;;27.55;;
81160;SDS011;70637;48.514;14.500;2024-03-17T13:14:59;31.08;;;27.52;;
81160;SDS011;70637;48.514;14.500;2024-03-17T13:17:25;36.20;;;28.45;;
81160;SDS011;70637;48.514;14.500;2024-03-17T13:19:51;33.22;;;27.23;;
81160;SDS011;70637;48.514;14.500;2024-03-17T13:22:16;32.42;;;27.65;;
81160;SDS011;70637;48.514;14.500;2024-03-17T13:24:42;29.15;;;25.92;;
81160;SDS011;70637;48.514;14.500;2024-03-17T13:27:07;32.28;;;27.33;;
81160;SDS011;70637;48.514;14.500;2024-03-17T13:29:36;32.70;;;27.63;;
81160;SDS011;70637;48.514;14.500;2024-03-17T13:32:02;31.95;;;27.45;;
81160;SDS011;70637;48.514;14.500;2024-03-17T13:34:28;32.72;;;27.77;;
81160;SDS011;70637;48.514;14.500;2024-03-17T13:36:54;36.33;;;28.52;;
81160;SDS011;70637;48.514;14.500;2024-03-17T13:39:19;34.25;;;27.30;;
81160;SDS011;70637;48.514;14.500;2024-03-17T13:41:49;34.15;;;28.25;;
81160;SDS011;70637;48.514;14.500;2024-03-17T13:44:17;33.42;;;28.17;;
81160;SDS011;70637;48.514;14.500;2024-03-17T13:49:19;31.75;;;27.50;;
81160;SDS011;70637;48.514;14.500;2024-03-17T13:51:44;33.03;;;27.63;;
81160;SDS011;70637;48.514;14.500;2024-03-17T13:54:10;30.65;;;27.33;;
81160;SDS011;70637;48.514;14.500;2024-03-17T13:56:36;36.13;;;28.95;;
81160;SDS011;70637;48.514;14.500;2024-03-17T13:59:02;33.53;;;27.38;;
81160;SDS011;70637;48.514;14.500;2024-03-17T14:01:27;31.50;;;27.50;;
81160;SDS011;70637;48.514;14.500;2024-03-17T14:03:53;30.65;;;27.10;;
81160;SDS011;70637;48.514;14.500;2024-03-17T14:06:19;31.17;;;27.80;;
81160;SDS011;70637;48.514;14.500;2024-03-17T14:08:45;34.45;;;28.52;;
81160;SDS011;70637;48.514;14.500;2024-03-17T14:11:10;33.72;;;27.80;;
81160;SDS011;70637;48.514;14.500;2024-03-17T14:13:36;30.50;;;27.20;;
81160;SDS011;70637;48.514;14.500;2024-03-17T14:16:01;34.78;;;27.73;;
81160;SDS011;70637;48.514;14.500;2024-03-17T14:18:29;33.50;;;28.10;;
81160;SDS011;70637;48.514;14.500;2024-03-17T14:20:57;31.33;;;27.08;;
81160;SDS011;70637;48.514;14.500;2024-03-17T14:23:23;30.70;;;27.25;;
81160;SDS011;70637;48.514;14.500;2024-03-17T14:25:50;34.13;;;27.02;;
81160;SDS011;70637;48.514;14.500;2024-03-17T14:28:15;32.17;;;26.65;;
81160;SDS011;70637;48.514;14.500;2024-03-17T14:30:41;29.77;;;26.10;;
81160;SDS011;70637;48.514;14.500;2024-03-17T14:33:07;29.20;;;26.08;;
81160;SDS011;70637;48.514;14.500;2024-03-17T14:35:32;33.05;;;27.23;;
81160;SDS011;70637;48.514;14.500;2024-03-17T14:37:58;31.00;;;26.52;;
81160;SDS011;70637;48.514;14.500;2024-03-17T14:40:24;30.40;;;25.73;;
81160;SDS011;70637;48.514;14.500;2024-03-17T14:42:53;34.35;;;26.38;;
81160;SDS011;70637;48.514;14.500;2024-03-17T14:45:20;31.05;;;26.45;;
81160;SDS011;70637;48.514;14.500;2024-03-17T14:47:49;32.20;;;25.92;;
81160;SDS011;70637;48.514;14.500;2024-03-17T14:50:17;28.23;;;25.05;;
81160;SDS011;70637;48.514;14.500;2024-03-17T14:52:43;32.75;;;25.27;;
81160;SDS011;70637;48.514;14.500;2024-03-17T14:55:10;29.50;;;25.52;;
81160;SDS011;70637;48.514;14.500;2024-03-17T14:57:36;27.40;;;24.08;;
81160;SDS011;70637;48.514;14.500;2024-03-17T15:00:06;32.33;;;25.35;;
81160;SDS011;70637;48.514;14.500;2024-03-17T15:02:41;28.05;;;23.95;;
81160;SDS011;70637;48.514;14.500;2024-03-17T15:05:11;30.17;;;25.08;;
81160;SDS011;70637;48.514;14.500;2024-03-17T15:07:40;28.77;;;24.85;;
81160;SDS011;70637;48.514;14.500;2024-03-17T15:10:06;29.63;;;24.73;;
81160;SDS011;70637;48.514;14.500;2024-03-17T15:12:33;27.70;;;24.70;;
81160;SDS011;70637;48.514;14.500;2024-03-17T15:14:58;29.00;;;24.08;;
81160;SDS011;70637;48.514;14.500;2024-03-17T15:17:24;27.85;;;24.27;;
81160;SDS011;70637;48.514;14.500;2024-03-17T15:19:50;27.33;;;24.25;;
81160;SDS011;70637;48.514;14.500;2024-03-17T15:22:16;28.30;;;24.83;;
81160;SDS011;70637;48.514;14.500;2024-03-17T15:24:41;27.85;;;23.92;;
81160;SDS011;70637;48.514;14.500;2024-03-17T15:27:07;27.17;;;24.13;;
81160;SDS011;70637;48.514;14.500;2024-03-17T15:29:35;29.05;;;24.80;;
81160;SDS011;70637;48.514;14.500;2024-03-17T15:32:00;29.05;;;24.83;;
81160;SDS011;70637;48.514;14.500;2024-03-17T15:34:26;26.15;;;23.05;;
81160;SDS011;70637;48.514;14.500;2024-03-17T15:36:56;27.70;;;24.17;;
81160;SDS011;70637;48.514;14.500;2024-03-17T15:39:22;28.42;;;24.00;;
81160;SDS011;70637;48.514;14.500;2024-03-17T15:41:48;28.08;;;24.48;;
81160;SDS011;70637;48.514;14.500;2024-03-17T15:44:14;28.95;;;23.90;;
81160;SDS011;70637;48.514;14.500;2024-03-17T15:46:40;27.77;;;23.00;;
81160;SDS011;70637;48.514;14.500;2024-03-17T15:49:06;27.27;;;24.05;;
81160;SDS011;70637;48.514;14.500;2024-03-17T15:51:32;26.70;;;23.77;;
81160;SDS011;70637;48.514;14.500;2024-03-17T15:53:58;26.70;;;23.75;;
81160;SDS011;70637;48.514;14.500;2024-03-17T15:56:23;27.98;;;23.67;;
81160;SDS011;70637;48.514;14.500;2024-03-17T15:58:49;25.00;;;21.98;;
81160;SDS011;70637;48.514;14.500;2024-03-17T16:01:15;27.67;;;23.77;;
81160;SDS011;70637;48.514;14.500;2024-03-17T16:03:41;26.98;;;22.70;;
81160;SDS011;70637;48.514;14.500;2024-03-17T16:06:12;26.70;;;23.50;;
81160;SDS011;70637;48.514;14.500;2024-03-17T16:08:46;25.10;;;22.40;;
81160;SDS011;70637;48.514;14.500;2024-03-17T16:11:13;28.63;;;23.95;;
81160;SDS011;70637;48.514;14.500;2024-03-17T16:13:46;25.88;;;22.63;;
81160;SDS011;70637;48.514;14.500;2024-03-17T16:16:16;26.05;;;22.52;;
81160;SDS011;70637;48.514;14.500;2024-03-17T16:18:44;26.88;;;22.63;;
81160;SDS011;70637;48.514;14.500;2024-03-17T16:21:12;27.27;;;22.52;;
81160;SDS011;70637;48.514;14.500;2024-03-17T16:23:54;26.30;;;21.73;;
81160;SDS011;70637;48.514;14.500;2024-03-17T16:26:24;28.08;;;22.40;;
81160;SDS011;70637;48.514;14.500;2024-03-17T16:28:50;26.55;;;22.08;;
81160;SDS011;70637;48.514;14.500;2024-03-17T16:31:19;23.75;;;21.25;;
81160;SDS011;70637;48.514;14.500;2024-03-17T16:33:47;24.55;;;21.95;;
81160;SDS011;70637;48.514;14.500;2024-03-17T16:36:14;24.15;;;21.52;;
81160;SDS011;70637;48.514;14.500;2024-03-17T16:38:40;26.73;;;22.08;;